Time;durP1;ratioP1;P1;durP2;ratioP2;P2;SDS_P1;SDS_P2;PMS_P1;PMS_P2;Temp;Humidity;BMP_temperature;BMP_pressure;BME280_temperature;BME280_humidity;BME280_pressure;Samples;Min_cycle;Max_cycle;Signal;HPM_P1;HPM_P2
2022/04/13 00:01:09;;;;;;;1.15;0.60;;;;;;;9.00;60.95;101062.75;5011018;28;20081;-70
2022/04/13 00:03:37;;;;;;;2.05;0.60;;;;;;;8.96;63.26;101061.75;5012079;28;20108;-69
2022/04/13 00:06:06;;;;;;;0.68;0.32;;;;;;;9.04;66.99;101053.44;5029958;28;20053;-70
2022/04/13 00:08:34;;;;;;;0.73;0.45;;;;;;;9.22;69.72;101054.19;5030460;28;20056;-77
2022/04/13 00:11:03;;;;;;;0.50;0.30;;;;;;;9.35;71.22;101045.22;5029948;28;20053;-68
2022/04/13 00:13:33;;;;;;;2.60;0.57;;;;;;;9.46;70.73;101035.28;5030597;28;20056;-69
2022/04/13 00:16:01;;;;;;;1.70;0.80;;;;;;;9.53;69.35;101034.69;5030357;28;20046;-68
2022/04/13 00:18:29;;;;;;;1.85;0.47;;;;;;;9.67;71.44;101037.81;5030407;28;20095;-69
2022/04/13 00:20:58;;;;;;;0.47;0.30;;;;;;;9.81;70.07;101028.88;5016693;28;20211;-70
2022/04/13 00:23:26;;;;;;;1.08;0.40;;;;;;;9.92;69.23;101029.25;5011347;28;20082;-69
2022/04/13 00:25:55;;;;;;;1.05;0.50;;;;;;;9.98;67.12;101022.59;5011882;28;20112;-68
2022/04/13 00:28:23;;;;;;;1.15;0.60;;;;;;;10.03;63.53;101022.78;5010713;28;20668;-68
2022/04/13 00:30:53;;;;;;;0.60;0.30;;;;;;;9.96;63.18;101023.38;5009662;28;20049;-69
2022/04/13 00:33:22;;;;;;;0.60;0.32;;;;;;;9.83;63.22;101009.16;5009721;28;20041;-70
2022/04/13 00:35:50;;;;;;;2.03;0.22;;;;;;;9.76;60.89;101008.03;5009507;28;20049;-70
2022/04/13 00:38:19;;;;;;;1.45;0.60;;;;;;;9.71;61.49;101004.41;5010115;28;20134;-70
2022/04/13 00:40:48;;;;;;;0.38;0.30;;;;;;;9.70;59.86;101007.81;5009654;28;20065;-69
2022/04/13 00:43:17;;;;;;;1.70;0.50;;;;;;;9.55;60.07;101009.81;5008858;28;20054;-68
2022/04/13 00:45:46;;;;;;;0.75;0.38;;;;;;;9.40;61.10;101013.59;5009855;28;20100;-68
2022/04/13 00:48:36;;;;;;;3.03;0.65;;;;;;;9.30;61.93;101020.91;5009458;28;20054;-67
2022/04/13 00:51:05;;;;;;;0.70;0.38;;;;;;;9.15;61.84;101018.63;5009487;28;20053;-68
2022/04/13 00:53:37;;;;;;;2.45;0.30;;;;;;;9.06;62.00;101010.50;5011170;28;20053;-69
2022/04/13 00:56:06;;;;;;;0.98;0.25;;;;;;;8.98;61.75;101008.50;5009900;28;20108;-69
2022/04/13 00:58:35;;;;;;;3.45;0.50;;;;;;;8.92;62.59;101008.25;5009123;28;20046;-70
2022/04/13 01:01:05;;;;;;;0.68;0.40;;;;;;;8.86;63.41;101004.53;5009531;28;20050;-69
2022/04/13 01:03:38;;;;;;;1.20;0.60;;;;;;;8.84;64.00;101007.06;5010229;28;20495;-69
2022/04/13 01:06:07;;;;;;;;;;;;;;;8.80;63.00;101018.09;5029545;28;20053;-70
2022/04/13 01:08:36;;;;;;;0.55;0.45;;;;;;;8.77;62.73;101023.09;5029200;28;20392;-69
2022/04/13 01:11:05;;;;;;;1.80;0.50;;;;;;;8.78;63.81;101014.56;5029269;28;20115;-70
2022/04/13 01:13:33;;;;;;;2.45;0.70;;;;;;;8.77;63.37;101018.84;5028993;28;20088;-69
2022/04/13 01:16:02;;;;;;;1.05;0.60;;;;;;;8.75;62.35;101019.56;5028836;28;20125;-68
2022/04/13 01:18:30;;;;;;;1.05;0.40;;;;;;;8.72;62.63;101014.31;5029164;28;20057;-69
2022/04/13 01:21:00;;;;;;;0.80;0.73;;;;;;;8.51;62.19;101015.19;5028763;28;20092;-69
2022/04/13 01:23:30;;;;;;;0.65;0.20;;;;;;;8.38;63.64;101018.00;5028638;28;20155;-69
2022/04/13 01:25:59;;;;;;;1.10;0.40;;;;;;;8.27;62.67;101016.66;5029185;28;20105;-69
2022/04/13 01:28:27;;;;;;;1.35;0.50;;;;;;;8.23;63.19;101012.22;5010444;28;20120;-69
2022/04/13 01:30:56;;;;;;;0.77;0.57;;;;;;;8.18;64.40;101017.19;5008641;28;20054;-68
2022/04/13 01:33:25;;;;;;;2.45;0.52;;;;;;;8.13;64.83;101011.84;5007996;28;20045;-70
2022/04/13 01:35:53;;;;;;;1.33;0.57;;;;;;;8.16;65.45;101011.94;5008530;28;20069;-70
2022/04/13 01:38:22;;;;;;;1.75;0.50;;;;;;;8.12;65.86;101009.16;5008608;28;20129;-69
2022/04/13 01:40:52;;;;;;;1.13;0.30;;;;;;;8.06;65.15;101007.19;5008944;28;20054;-70
2022/04/13 01:43:21;;;;;;;1.42;0.38;;;;;;;8.01;66.48;101010.41;5007765;28;20050;-71
2022/04/13 01:45:50;;;;;;;0.90;0.60;;;;;;;7.99;66.55;101005.16;5006951;28;20156;-71
2022/04/13 01:48:18;;;;;;;0.80;0.47;;;;;;;7.92;67.99;101005.72;5007120;28;20052;-70
2022/04/13 01:50:46;;;;;;;0.65;0.20;;;;;;;7.79;68.66;100993.09;5008355;28;20133;-71
2022/04/13 01:53:15;;;;;;;1.35;0.43;;;;;;;7.84;69.73;101009.66;5009849;28;20050;-71
2022/04/13 01:55:44;;;;;;;1.42;0.43;;;;;;;7.79;70.58;101014.63;5007411;28;20448;-71
2022/04/13 01:58:14;;;;;;;0.90;0.30;;;;;;;7.70;73.17;101015.06;5006777;28;20156;-70
2022/04/13 02:00:42;;;;;;;4.25;0.60;;;;;;;7.61;77.09;101031.81;5007887;28;20156;-70
2022/04/13 02:03:11;;;;;;;2.35;0.47;;;;;;;7.46;80.11;101027.69;5008921;28;20050;-70
2022/04/13 02:05:39;;;;;;;0.52;0.38;;;;;;;7.06;80.69;101058.41;5031275;28;20056;-72
2022/04/13 02:08:08;;;;;;;0.20;0.20;;;;;;;6.81;78.89;101056.31;5032368;28;20046;-70
2022/04/13 02:10:36;;;;;;;1.27;0.25;;;;;;;6.63;81.34;101061.44;5032974;28;20131;-70
2022/04/13 02:13:05;;;;;;;0.80;0.28;;;;;;;6.44;81.22;101064.75;5031824;28;20049;-71
2022/04/13 02:15:35;;;;;;;0.40;0.22;;;;;;;6.25;82.42;101062.91;5032516;28;20053;-71
2022/04/13 02:18:10;;;;;;;0.20;0.10;;;;;;;5.99;82.74;101062.44;5032764;28;20085;-71
2022/04/13 02:20:38;;;;;;;0.70;0.10;;;;;;;5.74;85.36;101055.09;5032240;28;20539;-71
2022/04/13 02:23:07;;;;;;;0.10;0.10;;;;;;;5.62;88.61;101052.75;5032003;28;20111;-71
2022/04/13 02:25:36;;;;;;;2.35;0.20;;;;;;;5.54;95.36;101051.44;5032505;28;20053;-71
2022/04/13 02:28:05;;;;;;;0.47;0.20;;;;;;;5.47;100.00;101041.63;5032266;28;20050;-71
2022/04/13 02:30:35;;;;;;;0.55;0.22;;;;;;;5.36;100.00;101038.50;5032037;28;20049;-70
2022/04/13 02:33:03;;;;;;;0.45;0.10;;;;;;;5.24;100.00;101038.72;5031296;28;20549;-71
2022/04/13 02:35:32;;;;;;;0.52;0.20;;;;;;;5.17;100.00;101040.84;5031371;28;20091;-71
2022/04/13 02:38:00;;;;;;;0.75;0.30;;;;;;;5.09;100.00;101037.84;5031445;28;20421;-69
2022/04/13 02:40:29;;;;;;;0.45;0.17;;;;;;;5.03;100.00;101035.81;5031497;28;20085;-68
2022/04/13 02:42:58;;;;;;;0.05;0.05;;;;;;;5.04;100.00;101029.03;5031205;28;20060;-69
2022/04/13 02:45:26;;;;;;;0.20;0.20;;;;;;;4.98;100.00;101034.66;5030919;28;20111;-70
2022/04/13 02:47:56;;;;;;;0.10;0.10;;;;;;;4.93;100.00;101030.97;5031724;28;20100;-69
2022/04/13 02:50:25;;;;;;;0.43;0.10;;;;;;;4.88;100.00;101023.81;5035209;28;20495;-67
2022/04/13 02:52:56;;;;;;;0.10;0.10;;;;;;;4.81;100.00;101015.78;5032349;28;20107;-69
2022/04/13 02:55:24;;;;;;;0.40;0.22;;;;;;;4.78;100.00;101014.72;5026745;28;20100;-69
2022/04/13 02:57:53;;;;;;;0.20;0.10;;;;;;;4.72;100.00;101015.25;5012276;28;20045;-69
2022/04/13 03:00:22;;;;;;;0.20;0.10;;;;;;;4.71;100.00;101017.72;5011044;28;20133;-69
2022/04/13 03:02:50;;;;;;;0.60;0.10;;;;;;;4.71;100.00;101010.91;5011701;28;20046;-68
2022/04/13 03:05:20;;;;;;;0.32;0.15;;;;;;;4.66;100.00;100999.53;5027465;28;20049;-68
2022/04/13 03:07:49;;;;;;;0.20;0.10;;;;;;;4.74;100.00;101008.56;5031122;28;20053;-68
2022/04/13 03:10:17;;;;;;;0.22;0.10;;;;;;;4.80;100.00;101011.44;5031327;28;20048;-69
2022/04/13 03:12:45;;;;;;;0.30;0.10;;;;;;;4.82;100.00;101004.72;5031230;28;20507;-70
2022/04/13 03:15:14;;;;;;;0.13;0.10;;;;;;;4.88;100.00;101003.28;5030797;28;20099;-70
2022/04/13 03:17:42;;;;;;;0.32;0.13;;;;;;;4.94;100.00;101013.91;5031057;28;20486;-70
2022/04/13 03:20:12;;;;;;;0.10;0.10;;;;;;;4.98;100.00;101018.41;5031235;28;20099;-70
2022/04/13 03:22:42;;;;;;;0.43;0.20;;;;;;;5.02;100.00;101020.34;5031043;28;20107;-70
2022/04/13 03:25:11;;;;;;;0.30;0.30;;;;;;;5.07;100.00;101018.06;5031260;28;20164;-69
2022/04/13 03:27:39;;;;;;;0.20;0.15;;;;;;;5.11;100.00;101023.44;5031152;28;20107;-69
2022/04/13 03:30:09;;;;;;;0.52;0.20;;;;;;;5.14;100.00;101022.72;5030649;28;20046;-69
2022/04/13 03:32:38;;;;;;;1.42;0.30;;;;;;;5.13;100.00;101024.41;5030787;28;20545;-69
2022/04/13 03:35:08;;;;;;;0.10;0.10;;;;;;;5.15;100.00;101020.22;5030505;28;20719;-69
2022/04/13 03:37:37;;;;;;;1.55;0.20;;;;;;;5.16;100.00;101024.56;5030860;28;20119;-69
2022/04/13 03:40:08;;;;;;;0.20;0.10;;;;;;;5.15;100.00;101027.91;5031107;28;20081;-69
2022/04/13 03:42:37;;;;;;;0.20;0.20;;;;;;;5.15;100.00;101027.91;5030438;28;20084;-69
2022/04/13 03:45:07;;;;;;;0.32;0.20;;;;;;;5.17;100.00;101021.19;5030378;28;20049;-69
2022/04/13 03:47:35;;;;;;;0.17;0.17;;;;;;;5.18;100.00;101015.28;5031031;28;20099;-69
2022/04/13 03:50:04;;;;;;;1.75;0.40;;;;;;;5.23;100.00;101021.53;5031967;28;20103;-69
2022/04/13 03:52:34;;;;;;;0.32;0.20;;;;;;;5.28;100.00;101018.34;5030416;28;20057;-68
2022/04/13 03:55:04;;;;;;;0.40;0.30;;;;;;;5.29;100.00;101015.88;5028724;28;20501;-68
2022/04/13 03:57:34;;;;;;;0.65;0.30;;;;;;;5.30;100.00;101012.50;5011193;28;20100;-69
2022/04/13 04:00:02;;;;;;;0.60;0.22;;;;;;;5.29;100.00;101008.19;5010591;28;20577;-69
2022/04/13 04:02:31;;;;;;;0.08;0.03;;;;;;;5.30;100.00;101007.38;5010331;28;20153;-68
2022/04/13 04:05:02;;;;;;;0.10;0.10;;;;;;;5.32;100.00;101008.34;5024053;28;20104;-69
2022/04/13 04:07:31;;;;;;;0.30;0.10;;;;;;;5.34;100.00;100998.16;5030672;28;20156;-69
2022/04/13 04:09:59;;;;;;;0.68;0.30;;;;;;;5.36;100.00;100996.53;5030437;28;20099;-69
2022/04/13 04:12:27;;;;;;;1.75;0.30;;;;;;;5.35;100.00;101000.78;5030376;28;20049;-68
2022/04/13 04:15:01;;;;;;;0.47;0.35;;;;;;;5.37;100.00;100996.63;5030362;28;20084;-69
2022/04/13 04:17:30;;;;;;;0.65;0.20;;;;;;;5.41;100.00;100990.00;5030945;28;20249;-69
2022/04/13 04:20:06;;;;;;;0.80;0.25;;;;;;;5.41;100.00;100992.56;5030157;28;20099;-69
2022/04/13 04:22:34;;;;;;;0.28;0.28;;;;;;;5.44;100.00;100990.16;5029872;28;20103;-68
2022/04/13 04:25:04;;;;;;;0.20;0.20;;;;;;;5.43;100.00;100996.97;5030102;28;20053;-68
2022/04/13 04:27:32;;;;;;;0.65;0.52;;;;;;;5.44;100.00;100987.59;5029175;28;20050;-68
2022/04/13 04:30:03;;;;;;;0.10;0.10;;;;;;;5.44;100.00;100991.03;5029788;28;20045;-69
2022/04/13 04:32:31;;;;;;;0.85;0.25;;;;;;;5.39;100.00;100991.59;5029456;28;20060;-69
2022/04/13 04:35:00;;;;;;;3.25;0.93;;;;;;;5.36;100.00;100991.41;5029616;28;20107;-69
2022/04/13 04:37:28;;;;;;;0.82;0.30;;;;;;;5.32;100.00;100985.25;5029744;28;20088;-69
2022/04/13 04:39:56;;;;;;;0.45;0.25;;;;;;;5.30;100.00;100980.84;5029912;28;20088;-70
2022/04/13 04:42:27;;;;;;;0.32;0.10;;;;;;;5.25;100.00;100976.31;5029350;28;20045;-70
2022/04/13 04:44:58;;;;;;;1.13;0.40;;;;;;;5.20;100.00;100985.47;5029487;28;20111;-70
2022/04/13 04:47:28;;;;;;;0.55;0.25;;;;;;;5.02;100.00;100974.19;5030139;28;20059;-69
2022/04/13 04:49:56;;;;;;;0.50;0.30;;;;;;;5.08;100.00;100982.22;5032420;28;20522;-69
2022/04/13 04:52:25;;;;;;;1.02;0.30;;;;;;;5.05;100.00;100982.03;5028884;28;20053;-70
2022/04/13 04:54:54;;;;;;;0.60;0.40;;;;;;;5.02;100.00;100984.44;5029328;28;20481;-69
2022/04/13 04:57:22;;;;;;;0.85;0.40;;;;;;;5.00;100.00;100978.34;5010117;28;20057;-69
2022/04/13 04:59:51;;;;;;;1.10;0.50;;;;;;;4.98;100.00;100978.25;5009725;28;20137;-69
2022/04/13 05:02:19;;;;;;;0.80;0.32;;;;;;;4.95;100.00;100977.22;5009199;28;20112;-70
2022/04/13 05:04:49;;;;;;;1.30;0.35;;;;;;;4.90;100.00;100978.63;5020647;28;20045;-70
2022/04/13 05:07:18;;;;;;;1.08;0.45;;;;;;;4.88;100.00;100967.41;5029111;28;20092;-68
2022/04/13 05:09:46;;;;;;;0.40;0.20;;;;;;;4.80;100.00;100974.66;5028656;28;20081;-70
2022/04/13 05:12:15;;;;;;;1.40;0.45;;;;;;;4.68;100.00;100977.44;5029304;28;20128;-71
2022/04/13 05:14:54;;;;;;;0.40;0.30;;;;;;;4.66;100.00;100978.16;5028567;28;20049;-70
2022/04/13 05:17:23;;;;;;;0.30;0.30;;;;;;;4.68;100.00;100968.88;5028858;28;20049;-69
2022/04/13 05:19:53;;;;;;;0.57;0.35;;;;;;;4.70;100.00;100965.59;5028175;28;20080;-69
2022/04/13 05:22:21;;;;;;;1.20;0.43;;;;;;;4.73;100.00;100954.63;5028400;28;20045;-70
2022/04/13 05:24:49;;;;;;;2.63;0.52;;;;;;;4.74;100.00;100957.28;5029164;28;20049;-70
2022/04/13 05:27:18;;;;;;;2.88;0.43;;;;;;;4.75;100.00;100946.22;5028589;28;20096;-71
2022/04/13 05:29:46;;;;;;;1.75;0.75;;;;;;;4.77;100.00;100957.44;5028692;28;20041;-70
2022/04/13 05:32:15;;;;;;;4.32;0.60;;;;;;;4.74;100.00;100957.28;5028171;28;20046;-71
2022/04/13 05:34:43;;;;;;;1.33;0.70;;;;;;;4.71;100.00;100939.13;5027517;28;20128;-71
2022/04/13 05:37:13;;;;;;;1.83;0.50;;;;;;;4.68;100.00;100944.09;5028375;28;20575;-69
2022/04/13 05:39:45;;;;;;;1.75;0.35;;;;;;;4.66;100.00;100938.00;5028865;28;20057;-70
2022/04/13 05:42:13;;;;;;;1.95;0.80;;;;;;;4.63;100.00;100945.53;5028413;28;20085;-69
2022/04/13 05:44:42;;;;;;;0.65;0.30;;;;;;;4.56;100.00;100941.75;5028451;28;20124;-69
2022/04/13 05:47:10;;;;;;;0.75;0.45;;;;;;;4.55;100.00;100934.84;5028085;28;20068;-70
2022/04/13 05:49:39;;;;;;;1.67;0.70;;;;;;;4.50;100.00;100926.00;5032034;28;20076;-69
2022/04/13 05:52:07;;;;;;;2.80;0.88;;;;;;;4.46;100.00;100928.31;5028573;28;20087;-70
2022/04/13 05:54:37;;;;;;;2.53;0.63;;;;;;;4.47;100.00;100919.84;5028641;28;20144;-70
2022/04/13 05:57:06;;;;;;;2.78;0.98;;;;;;;4.44;100.00;100929.91;5009487;28;20227;-69
2022/04/13 05:59:47;;;;;;;0.90;0.40;;;;;;;4.40;100.00;100914.38;5008299;28;20050;-70
2022/04/13 06:02:16;;;;;;;2.15;0.80;;;;;;;4.41;100.00;100905.00;5007963;28;20045;-70
2022/04/13 06:04:44;;;;;;;1.15;0.70;;;;;;;4.46;100.00;100912.94;5018896;28;20045;-71
2022/04/13 06:07:13;;;;;;;0.80;0.50;;;;;;;4.47;100.00;100901.91;5028141;28;20058;-70
2022/04/13 06:09:43;;;;;;;2.42;0.50;;;;;;;4.51;100.00;100904.72;5027965;28;20049;-70
2022/04/13 06:12:12;;;;;;;3.33;0.70;;;;;;;4.55;100.00;100908.34;5028257;28;20081;-69
2022/04/13 06:14:41;;;;;;;2.22;0.70;;;;;;;4.56;100.00;100907.56;5028130;28;20051;-70
2022/04/13 06:17:09;;;;;;;2.72;0.55;;;;;;;4.55;100.00;100913.47;5027586;28;20156;-70
2022/04/13 06:19:38;;;;;;;1.45;0.80;;;;;;;4.53;100.00;100909.91;5028032;28;20077;-70
2022/04/13 06:22:06;;;;;;;1.38;0.65;;;;;;;4.50;100.00;100904.63;5027415;28;20144;-70
2022/04/13 06:24:35;;;;;;;1.23;0.50;;;;;;;4.49;100.00;100906.31;5027864;28;20064;-70
2022/04/13 06:27:05;;;;;;;4.15;0.70;;;;;;;4.44;100.00;100899.16;5027549;28;20088;-70
2022/04/13 06:29:33;;;;;;;0.90;0.55;;;;;;;4.46;100.00;100897.56;5028048;28;20104;-70
2022/04/13 06:32:02;;;;;;;3.00;0.70;;;;;;;4.44;100.00;100899.16;5027408;28;20441;-70
2022/04/13 06:34:30;;;;;;;1.52;0.80;;;;;;;4.43;100.00;100894.84;5028268;28;20041;-70
2022/04/13 06:36:59;;;;;;;2.28;0.80;;;;;;;4.40;100.00;100893.00;5028136;28;20483;-70
2022/04/13 06:39:27;;;;;;;4.47;0.88;;;;;;;4.35;100.00;100889.28;5028498;28;20077;-69
2022/04/13 06:41:56;;;;;;;0.57;0.32;;;;;;;4.33;100.00;100885.72;5027867;28;20177;-69
2022/04/13 06:44:26;;;;;;;2.25;0.68;;;;;;;4.30;100.00;100888.13;5028383;28;20045;-71
2022/04/13 06:46:55;;;;;;;1.63;0.47;;;;;;;4.28;100.00;100887.16;5028228;28;20107;-70
2022/04/13 06:49:23;;;;;;;1.48;0.68;;;;;;;4.26;100.00;100884.53;5032133;28;20050;-71
2022/04/13 06:51:52;;;;;;;0.80;0.52;;;;;;;4.25;100.00;100885.31;5032440;28;20554;-71
2022/04/13 06:54:20;;;;;;;1.85;0.75;;;;;;;4.24;100.00;100882.66;5031975;28;20049;-71
2022/04/13 06:56:48;;;;;;;0.47;0.40;;;;;;;4.21;100.00;100878.25;5014900;28;20142;-70
2022/04/13 06:59:17;;;;;;;0.65;0.50;;;;;;;4.21;100.00;100878.25;5011464;28;20046;-71
2022/04/13 07:01:47;;;;;;;1.90;0.85;;;;;;;4.20;100.00;100887.59;5011475;28;20267;-71
2022/04/13 07:04:15;;;;;;;3.40;0.50;;;;;;;4.19;100.00;100874.72;5017743;28;20053;-71
2022/04/13 07:06:44;;;;;;;0.45;0.40;;;;;;;4.16;100.00;100882.22;5030862;28;20057;-72
2022/04/13 07:09:12;;;;;;;1.25;0.70;;;;;;;4.14;100.00;100884.69;5030751;28;20533;-71
2022/04/13 07:11:41;;;;;;;0.73;0.43;;;;;;;4.15;100.00;100880.47;5030970;28;20065;-70
2022/04/13 07:14:09;;;;;;;0.77;0.40;;;;;;;4.15;100.00;100871.09;5030948;28;20056;-71
2022/04/13 07:16:38;;;;;;;1.10;0.60;;;;;;;4.15;100.00;100863.41;5030788;28;20099;-70
2022/04/13 07:19:08;;;;;;;1.83;0.90;;;;;;;4.16;100.00;100854.06;5030613;28;20077;-67
2022/04/13 07:21:36;;;;;;;0.85;0.30;;;;;;;4.16;100.00;100851.50;5011509;28;20542;-69
2022/04/13 07:24:05;;;;;;;3.33;0.50;;;;;;;4.17;100.00;100843.03;5011041;28;20054;-68
2022/04/13 07:26:34;;;;;;;0.75;0.50;;;;;;;4.16;100.00;100848.94;5010793;28;20085;-68
2022/04/13 07:29:02;;;;;;;0.52;0.40;;;;;;;4.16;100.00;100838.69;5010799;28;20054;-68
2022/04/13 07:31:31;;;;;;;2.08;0.50;;;;;;;4.14;100.00;100847.97;5010550;28;20558;-68
2022/04/13 07:34:00;;;;;;;0.47;0.25;;;;;;;4.09;100.00;100840.03;5010658;28;20049;-69
2022/04/13 07:36:30;;;;;;;1.17;0.45;;;;;;;4.09;100.00;100836.59;5011048;28;20108;-68
2022/04/13 07:38:59;;;;;;;0.88;0.50;;;;;;;4.09;100.00;100841.69;5011485;28;20496;-70
2022/04/13 07:41:27;;;;;;;0.52;0.43;;;;;;;4.06;100.00;100844.97;5011507;28;20050;-69
2022/04/13 07:43:57;;;;;;;0.73;0.40;;;;;;;4.07;100.00;100835.59;5010406;28;20073;-68
2022/04/13 07:46:27;;;;;;;0.60;0.30;;;;;;;4.06;100.00;100833.84;5011031;28;20046;-70
2022/04/13 07:48:56;;;;;;;0.30;0.30;;;;;;;4.08;100.00;100845.06;5013376;28;20050;-69
2022/04/13 07:51:24;;;;;;;0.47;0.40;;;;;;;4.07;100.00;100840.72;5012908;28;20057;-70
2022/04/13 07:53:54;;;;;;;3.95;0.50;;;;;;;4.09;100.00;100834.03;5011422;28;20096;-69
2022/04/13 07:56:23;;;;;;;0.38;0.30;;;;;;;4.08;100.00;100837.38;5011145;28;20519;-69
2022/04/13 07:58:51;;;;;;;0.40;0.30;;;;;;;4.04;100.00;100826.06;5010668;28;20050;-69
2022/04/13 08:01:19;;;;;;;0.60;0.40;;;;;;;4.07;100.00;100830.50;5009082;28;20189;-69
2022/04/13 08:03:48;;;;;;;0.57;0.43;;;;;;;4.07;100.00;100830.50;5013137;28;20046;-69
2022/04/13 08:06:16;;;;;;;0.85;0.47;;;;;;;4.08;100.00;100833.16;5030137;28;20092;-69
2022/04/13 08:08:45;;;;;;;0.77;0.60;;;;;;;4.10;100.00;100841.81;5029705;28;20095;-70
2022/04/13 08:11:15;;;;;;;0.40;0.40;;;;;;;4.10;100.00;100848.56;5029863;28;20049;-70
2022/04/13 08:13:43;;;;;;;1.27;0.82;;;;;;;4.05;100.00;100842.31;5029390;28;20057;-69
2022/04/13 08:16:12;;;;;;;1.02;0.50;;;;;;;4.03;100.00;100846.47;5030039;28;20115;-69
2022/04/13 08:18:40;;;;;;;2.25;0.80;;;;;;;4.05;100.00;100845.75;5030048;28;20103;-69
2022/04/13 08:21:09;;;;;;;0.88;0.50;;;;;;;4.07;100.00;100848.41;5029615;28;20136;-69
2022/04/13 08:23:37;;;;;;;0.52;0.40;;;;;;;4.09;100.00;100846.81;5029585;28;20085;-70
2022/04/13 08:26:06;;;;;;;0.63;0.30;;;;;;;4.03;100.00;100847.34;5029623;28;20089;-70
2022/04/13 08:28:36;;;;;;;0.77;0.50;;;;;;;4.04;100.00;100845.69;5029382;28;20136;-70
2022/04/13 08:31:04;;;;;;;0.50;0.40;;;;;;;3.96;100.00;100830.78;5029347;28;20099;-70
2022/04/13 08:33:33;;;;;;;0.80;0.35;;;;;;;4.03;100.00;100831.09;5029482;28;20050;-70
2022/04/13 08:36:01;;;;;;;0.60;0.35;;;;;;;4.03;100.00;100843.91;5029888;28;20073;-70
2022/04/13 08:38:30;;;;;;;0.68;0.45;;;;;;;4.01;100.00;100841.28;5029749;28;20050;-70
2022/04/13 08:41:00;;;;;;;0.52;0.25;;;;;;;3.99;100.00;100848.84;5030171;28;20049;-70
2022/04/13 08:43:38;;;;;;;0.75;0.20;;;;;;;3.99;100.00;100838.63;5029187;28;20533;-70
2022/04/13 08:46:13;;;;;;;0.52;0.30;;;;;;;3.90;100.00;100815.06;5029838;28;20050;-71
2022/04/13 08:48:44;;;;;;;0.57;0.30;;;;;;;4.02;100.00;100834.47;5030851;28;20119;-71
2022/04/13 08:51:17;;;;;;;0.20;0.20;;;;;;;3.98;100.00;100826.59;5032273;28;20057;-71
2022/04/13 08:53:45;;;;;;;;;;;;;;;3.88;100.00;100815.75;5030626;28;20103;-70
2022/04/13 08:56:19;;;;;;;0.20;0.20;;;;;;;3.92;100.00;100822.84;5014938;28;20012;-71
2022/04/13 08:59:01;;;;;;;0.55;0.30;;;;;;;3.87;100.00;100808.88;5010030;28;20116;-71
2022/04/13 09:01:39;;;;;;;0.55;0.35;;;;;;;3.81;100.00;100816.22;5009514;28;20058;-70
2022/04/13 09:04:10;;;;;;;0.40;0.32;;;;;;;3.67;100.00;100813.72;5013727;28;20132;-71
2022/04/13 09:06:40;;;;;;;0.60;0.32;;;;;;;3.64;100.00;100817.78;5009722;28;20057;-70
2022/04/13 09:09:15;;;;;;;0.50;0.40;;;;;;;3.64;100.00;100815.22;5009045;28;20041;-71
2022/04/13 09:11:46;;;;;;;0.68;0.40;;;;;;;3.66;100.00;100813.63;5008793;28;20573;-69
2022/04/13 09:14:15;;;;;;;0.40;0.40;;;;;;;3.64;100.00;100810.09;5008762;28;20628;-70
2022/04/13 09:16:46;;;;;;;0.73;0.40;;;;;;;3.65;100.00;100809.31;5008913;28;20081;-70
2022/04/13 09:19:14;;;;;;;1.23;0.60;;;;;;;3.63;100.00;100811.78;5008721;28;20684;-70
2022/04/13 09:21:44;;;;;;;0.30;0.20;;;;;;;3.59;100.00;100808.97;5008568;28;20049;-70
2022/04/13 09:24:14;;;;;;;0.60;0.40;;;;;;;3.56;100.00;100815.66;5008356;28;20049;-70
2022/04/13 09:26:43;;;;;;;0.52;0.30;;;;;;;3.51;100.00;100816.19;5008943;28;20056;-71
2022/04/13 09:29:12;;;;;;;1.85;0.35;;;;;;;3.46;100.00;100815.03;5008735;28;20046;-70
2022/04/13 09:31:40;;;;;;;0.50;0.40;;;;;;;3.44;100.00;100814.94;5008728;28;20054;-70
2022/04/13 09:34:11;;;;;;;0.40;0.40;;;;;;;3.44;100.00;100808.97;4989206;28;20322;-69
2022/04/13 09:36:40;;;;;;;0.60;0.50;;;;;;;3.41;100.00;100803.66;4989661;28;20101;-70
2022/04/13 09:39:09;;;;;;;0.63;0.47;;;;;;;3.27;100.00;100807.94;4989470;28;20112;-70
2022/04/13 09:41:39;;;;;;;0.63;0.60;;;;;;;3.12;100.00;100790.91;4988835;28;20050;-69
2022/04/13 09:44:15;;;;;;;0.45;0.45;;;;;;;3.15;100.00;100806.41;4989620;28;20082;-68
2022/04/13 09:46:44;;;;;;;0.65;0.40;;;;;;;3.13;100.00;100800.31;4989708;28;20496;-67
2022/04/13 09:49:16;;;;;;;0.93;0.40;;;;;;;3.15;100.00;100806.41;4990765;28;20101;-68
2022/04/13 09:51:48;;;;;;;0.82;0.40;;;;;;;3.19;100.00;100794.72;4992261;28;20046;-68
2022/04/13 09:54:18;;;;;;;0.88;0.68;;;;;;;3.25;100.00;100796.75;4990443;28;20562;-70
2022/04/13 09:56:49;;;;;;;0.90;0.50;;;;;;;3.30;100.00;100795.34;4998250;28;20050;-70
2022/04/13 09:59:27;;;;;;;1.17;0.60;;;;;;;3.35;100.00;100792.25;5008083;28;20046;-70
2022/04/13 10:01:55;;;;;;;0.60;0.43;;;;;;;3.40;100.00;100787.41;4969145;28;20051;-69
2022/04/13 10:04:30;;;;;;;0.50;0.30;;;;;;;3.44;100.00;100780.81;4971101;28;20038;-69
2022/04/13 10:07:15;;;;;;;0.60;0.50;;;;;;;3.45;100.00;100782.56;5003592;28;20056;-70
2022/04/13 10:09:44;;;;;;;1.52;0.80;;;;;;;3.47;100.00;100781.88;5008199;28;20042;-69
2022/04/13 10:12:12;;;;;;;2.17;1.20;;;;;;;3.49;100.00;100782.84;5008196;28;20101;-70
2022/04/13 10:14:41;;;;;;;2.25;0.88;;;;;;;3.51;100.00;100782.94;4999099;28;20132;-70
2022/04/13 10:17:11;;;;;;;1.23;0.60;;;;;;;3.52;100.00;100790.69;4988700;28;20093;-70
2022/04/13 10:19:42;;;;;;;1.73;0.90;;;;;;;3.55;100.00;100782.31;4988821;28;20068;-70
2022/04/13 10:22:10;;;;;;;1.80;1.10;;;;;;;3.57;100.00;100788.38;4988601;28;20114;-70
2022/04/13 10:24:40;;;;;;;2.00;1.08;;;;;;;3.60;100.00;100786.03;4990045;28;20050;-70
2022/04/13 10:27:10;;;;;;;1.52;0.90;;;;;;;3.62;100.00;100788.66;4992588;28;20571;-70
2022/04/13 10:29:39;;;;;;;1.08;0.82;;;;;;;3.62;100.00;100798.88;4993033;28;20050;-70
2022/04/13 10:32:10;;;;;;;0.90;0.75;;;;;;;3.63;100.00;100793.00;4992570;28;20042;-70
2022/04/13 10:34:39;;;;;;;0.73;0.55;;;;;;;3.64;100.00;100795.66;4993069;28;20088;-70
2022/04/13 10:37:11;;;;;;;0.90;0.70;;;;;;;3.66;100.00;100795.72;5015889;28;20073;-70
2022/04/13 10:39:41;;;;;;;0.88;0.77;;;;;;;3.67;100.00;100798.38;5031706;28;20053;-70
2022/04/13 10:42:10;;;;;;;0.98;0.70;;;;;;;3.68;100.00;100801.81;5031493;28;20388;-70
2022/04/13 10:44:40;;;;;;;1.55;0.98;;;;;;;3.67;100.00;100797.50;5031957;28;20099;-70
2022/04/13 10:47:12;;;;;;;2.60;1.00;;;;;;;3.69;100.00;100801.91;5031727;28;20618;-70
2022/04/13 10:49:53;;;;;;;1.13;0.77;;;;;;;3.71;100.00;100792.66;5032666;28;20045;-70
2022/04/13 10:52:29;;;;;;;2.47;0.90;;;;;;;3.74;100.00;100789.38;5032809;28;20202;-70
2022/04/13 10:55:05;;;;;;;0.90;0.88;;;;;;;3.71;100.00;100790.09;5000438;28;20183;-70
2022/04/13 10:57:38;;;;;;;1.48;1.10;;;;;;;3.71;100.00;100784.97;5018729;28;20115;-70
2022/04/13 11:00:10;;;;;;;0.75;0.75;;;;;;;3.70;100.00;100787.44;5034320;27;20054;-70
2022/04/13 11:02:47;;;;;;;1.10;0.73;;;;;;;3.69;100.00;100790.81;4991786;28;20050;-70
2022/04/13 11:05:16;;;;;;;1.27;0.90;;;;;;;3.70;100.00;100787.44;5008737;28;20077;-70
2022/04/13 11:07:47;;;;;;;1.38;0.90;;;;;;;3.72;100.00;100788.41;5010597;28;20550;-70
2022/04/13 11:10:19;;;;;;;1.60;1.10;;;;;;;3.73;100.00;100782.47;5011265;28;20106;-70
2022/04/13 11:12:48;;;;;;;1.73;1.27;;;;;;;3.74;100.00;100774.91;5011202;28;20084;-70
2022/04/13 11:15:18;;;;;;;1.77;1.08;;;;;;;3.77;100.00;100787.00;5011410;28;20370;-70
2022/04/13 11:17:46;;;;;;;5.95;1.27;;;;;;;3.79;100.00;100787.97;5011104;28;20111;-70
2022/04/13 11:20:20;;;;;;;1.27;1.02;;;;;;;3.78;100.00;100788.78;5011322;28;20095;-70
2022/04/13 11:23:09;;;;;;;2.72;1.73;;;;;;;3.78;100.00;100792.22;5011145;28;20092;-70
2022/04/13 11:25:48;;;;;;;3.00;1.58;;;;;;;3.84;100.00;100789.09;5011429;28;20492;-71
2022/04/13 11:28:28;;;;;;;1.52;1.10;;;;;;;3.85;100.00;100783.19;5011180;28;20053;-70
2022/04/13 11:31:05;;;;;;;2.25;1.25;;;;;;;3.88;100.00;100792.72;5011363;28;20049;-71
2022/04/13 11:34:00;;;;;;;1.85;1.30;;;;;;;3.89;100.00;100795.34;5011290;28;20045;-70
2022/04/13 11:36:31;;;;;;;1.88;1.30;;;;;;;3.88;100.00;100793.59;5011594;28;20100;-71
2022/04/13 11:39:01;;;;;;;2.33;1.42;;;;;;;3.87;100.00;100793.50;5010536;28;20153;-70